Impacts TAF Board
For situational awareness. Not to be used for flight planning purposes.
IDs:

KTPA - Tampa Intl Arpt, FL, US

Issued at 0909 UTC 21 Sep 2018
Updated at 1127 UTC 21 Sep 2018
Potential Impact None Slight Moderate High
Time<<22/12Z 22/13Z 22/14Z 22/15Z 22/16Z 22/17Z 22/18Z 22/19Z 22/20Z 22/21Z 22/22Z 22/23Z 23/00Z
Type
VIS
CIG
Cover
FltCat
WX
WDir
WSpd
WGst
Raw TAF
KTPA 210909Z 2109/2212 VRB03KT P6SM SCT250
  FM211300 07005KT P6SM FEW035 SCT250
  FM211800 VRB05KT P6SM VCTS SCT035CB SCT250
  FM220200 VRB03KT P6SM FEW035


METAR Board
Radar Display
Forecast Discussion
For situational awareness. Not to be used for flight planning purposes.